Hall Beach Airport
CYUX : rendu visible

Aérodrome :











RETROUVEZ-NOUS SUR...

 
LOGIN :

S'inscrire | Disclaimer

   EN    FR    IT 

 









Légende :    VFR   VFR Marginal   IFR   IFR Intensif   IFR Très Intensif
Visi : 
Plafond : 
>= 8 km
>= 3000ft
5 à 8 km
1000 à 3000 ft
1500m à 5 km
500 à 1000 ft
800 à 1500m
200 à 500 ft
< 800m
< 200 ft
Symboles :   Orages  Brouillard  Fortes neiges  Fortes précipitations  Vent > 20 kt






- Altitude de l'aérodrome : 27 ft
- Code IATA : YUX


CYUX - Hall Beach

DERNIER METAR :
  • 240416Z AUTO 30018KT 2SM HZ CLR M34/M38 A2995 RMK SLP144

METARs EXPIRÉS :
  • 240400Z AUTO 31020G25KT 1 1/4SM HZ CLR M34/M38 A2994 RMK SLP141
  • 240336Z AUTO 31022G27KT 1SM BLSN CLR M34/M38 A2994 RMK SLP143
  • 240300Z AUTO 31021KT 3/4SM HZ CLR M34/M38 A2994 RMK SLP143
  • 240256Z AUTO 31022KT 3/4SM BLSN CLR M34/M38 A2994 RMK SLP142
  • 240230Z AUTO 31025KT 3/4SM -SN BLSN CLR M34/M37 A2994 RMK SLP141
  • 240212Z AUTO 31021KT 1SM HZ CLR M34/M38 A2995 RMK SLP145
  • 240200Z AUTO 32024KT 3/4SM -SN BLSN CLR M34/M38 A2995 RMK SLP144
  • 240130Z AUTO 32021KT 1SM HZ SCT090 SCT110 M34/M38 A2995 RMK SLP146

TAF AMD TAF CYUX
Valide du 24 à 02h jusqu'au 24 à 13h UTC


240213Z 2402/2413 32020KT 1/2SM IC HZ BLSN SKC
TEMPO 2402/2413 4SM BLSN RMK NXT FCST BY 240700Z



MET'MAP, la Météo Aéronautique d'un coup d'oeil ! - Copyright ORBIFLY Décembre 2007 - Disclaimer

ORBIFLY MET'MAP TEAM :

Programmation & Développement : Alexandra Zaïnal
Sur une idée originale de : Baudouin d'Aumeries
Assistance à la programmation : Marc-Olivier Méhu
Soutien technique & logistique : Manuel Goepfert

Contact : metmap@orbifly.com




SOURCES & CREDITS :

   NOAA       Earth
Advisory